Time;durP1;ratioP1;P1;durP2;ratioP2;P2;SDS_P1;SDS_P2;PMS_P1;PMS_P2;Temp;Humidity;BMP_temperature;BMP_pressure;BME280_temperature;BME280_humidity;BME280_pressure;Samples;Min_cycle;Max_cycle;Signal;HPM_P1;HPM_P2
2021/03/03 00:01:19;;;;;;;;;;;;;;;;;;5017498;28;1922;-67
2021/03/03 00:03:45;;;;;;;;;;;;;;;;;;5022131;28;1593;-66
2021/03/03 00:06:11;;;;;;;;;;;;;;;;;;5027199;28;839;-67
2021/03/03 00:08:36;;;;;;;;;;;;;;;;;;5021637;28;1432;-66
2021/03/03 00:11:02;;;;;;;;;;;;;;;;;;5026044;28;838;-66
2021/03/03 00:13:27;;;;;;;;;;;;;;;;;;5024149;28;1399;-67
2021/03/03 00:15:52;;;;;;;;;;;;;;;;;;5011452;28;2549;-66
2021/03/03 00:18:18;;;;;;;;;;;;;;;;;;5021251;28;1485;-66
2021/03/03 00:20:43;;;;;;;;;;;;;;;;;;5027106;28;1945;-66
2021/03/03 00:23:08;;;;;;;;;;;;;;;;;;5025528;28;886;-66
2021/03/03 00:25:34;;;;;;;;;;;;;;;;;;5024961;28;1451;-66
2021/03/03 00:27:59;;;;;;;;;;;;;;;;;;5016610;28;1514;-66
2021/03/03 00:30:25;;;;;;;;;;;;;;;;;;5004983;28;1401;-66
2021/03/03 00:32:50;;;;;;;;;;;;;;;;;;5017284;28;1361;-67
2021/03/03 00:35:16;;;;;;;;;;;;;;;;;;5021559;28;1632;-66
2021/03/03 00:37:41;;;;;;;;;;;;;;;;;;5000777;28;1719;-66
2021/03/03 00:40:08;;;;;;;;;;;;;;;;;;5018717;28;1898;-66
2021/03/03 00:42:33;;;;;;;;;;;;;;;;;;5013330;28;1548;-66
2021/03/03 00:44:58;;;;;;;;;;;;;;;;;;5002991;28;1821;-66
2021/03/03 00:47:24;;;;;;;;;;;;;;;;;;4998272;28;1449;-67
2021/03/03 00:49:49;;;;;;;;;;;;;;;;;;4985747;28;856;-66
2021/03/03 00:52:14;;;;;;;;;;;;;;;;;;4986265;28;820;-66
2021/03/03 00:54:40;;;;;;;;;;;;;;;;;;5021741;28;1085;-66
2021/03/03 00:57:05;;;;;;;;;;;;;;;;;;5014357;28;1554;-66
2021/03/03 00:59:31;;;;;;;;;;;;;;;;;;5037782;28;1979;-66
2021/03/03 01:01:56;;;;;;;;;;;;;;;;;;5000230;28;1506;-66
2021/03/03 01:04:21;;;;;;;;;;;;;;;;;;4985305;28;816;-67
2021/03/03 01:06:47;;;;;;;;;;;;;;;;;;4988861;28;930;-66
2021/03/03 01:09:12;;;;;;;;;;;;;;;;;;4989426;28;1373;-66
2021/03/03 01:11:37;;;;;;;;;;;;;;;;;;5036676;28;1550;-66
2021/03/03 01:14:03;;;;;;;;;;;;;;;;;;5017258;28;1622;-67
2021/03/03 01:16:28;;;;;;;;;;;;;;;;;;5005947;28;1544;-66
2021/03/03 01:18:53;;;;;;;;;;;;;;;;;;5019184;28;1551;-66
2021/03/03 01:21:19;;;;;;;;;;;;;;;;;;5003432;28;1961;-66
2021/03/03 01:23:44;;;;;;;;;;;;;;;;;;5016611;28;1494;-66
2021/03/03 01:26:10;;;;;;;;;;;;;;;;;;5009491;28;1685;-66
2021/03/03 01:28:35;;;;;;;;;;;;;;;;;;5007444;28;895;-66
2021/03/03 01:31:00;;;;;;;;;;;;;;;;;;5009351;28;931;-67
2021/03/03 01:33:29;;;;;;;;;;;;;;;;;;5007168;28;1556;-66
2021/03/03 01:35:54;;;;;;;;;;;;;;;;;;5009492;28;1001;-66
2021/03/03 01:38:20;;;;;;;;;;;;;;;;;;5008317;28;1536;-66
2021/03/03 01:40:46;;;;;;;;;;;;;;;;;;5009087;28;1894;-66
2021/03/03 01:43:11;;;;;;;;;;;;;;;;;;4999962;28;931;-66
2021/03/03 01:45:37;;;;;;;;;;;;;;;;;;4990100;28;915;-66
2021/03/03 01:48:02;;;;;;;;;;;;;;;;;;5006207;28;1424;-66
2021/03/03 01:50:28;;;;;;;;;;;;;;;;;;5009148;28;827;-66
2021/03/03 01:52:53;;;;;;;;;;;;;;;;;;5013585;28;1079;-67
2021/03/03 01:55:18;;;;;;;;;;;;;;;;;;5010010;28;760;-66
2021/03/03 01:57:44;;;;;;;;;;;;;;;;;;5003008;28;1438;-66
2021/03/03 02:00:10;;;;;;;;;;;;;;;;;;5021104;28;1922;-66
2021/03/03 02:02:36;;;;;;;;;;;;;;;;;;4994479;28;1568;-66
2021/03/03 02:05:01;;;;;;;;;;;;;;;;;;4988233;28;843;-66
2021/03/03 02:07:39;;;;;;;;;;;;;;;;;;4990436;28;716;-66
2021/03/03 02:10:21;;;;;;;;;;;;;;;;;;5007706;28;1617;-66
2021/03/03 02:12:53;;;;;;;;;;;;;;;;;;5029281;28;999;-66
2021/03/03 02:15:20;;;;;;;;;;;;;;;;;;5028695;28;875;-66
2021/03/03 02:17:46;;;;;;;;;;;;;;;;;;5026759;28;1580;-66
2021/03/03 02:20:13;;;;;;;;;;;;;;;;;;5026673;28;1886;-66
2021/03/03 02:22:53;;;;;;;;;;;;;;;;;;5026025;28;1419;-66
2021/03/03 02:25:25;;;;;;;;;;;;;;;;;;5028823;28;831;-66
2021/03/03 02:27:52;;;;;;;;;;;;;;;;;;5027981;28;855;-68
2021/03/03 02:30:18;;;;;;;;;;;;;;;;;;5027591;28;1435;-66
2021/03/03 02:32:44;;;;;;;;;;;;;;;;;;5023535;28;1417;-66
2021/03/03 02:35:10;;;;;;;;;;;;;;;;;;5007972;28;880;-66
2021/03/03 02:37:36;;;;;;;;;;;;;;;;;;5007562;28;915;-66
2021/03/03 02:40:08;;;;;;;;;;;;;;;;;;5007022;28;2344;-66
2021/03/03 02:42:37;;;;;;;;;;;;;;;;;;5020132;28;1223;-66
2021/03/03 02:45:04;;;;;;;;;;;;;;;;;;5006098;28;1524;-66
2021/03/03 02:47:30;;;;;;;;;;;;;;;;;;5005842;28;1407;-66
2021/03/03 02:49:56;;;;;;;;;;;;;;;;;;5007008;28;1432;-66
2021/03/03 02:52:22;;;;;;;;;;;;;;;;;;5004701;28;1410;-67
2021/03/03 02:54:48;;;;;;;;;;;;;;;;;;5025618;28;1434;-66
2021/03/03 02:57:13;;;;;;;;;;;;;;;;;;5001720;28;1875;-68
2021/03/03 02:59:42;;;;;;;;;;;;;;;;;;5007188;28;1991;-68
2021/03/03 03:02:10;;;;;;;;;;;;;;;;;;5013708;28;1428;-68
2021/03/03 03:04:38;;;;;;;;;;;;;;;;;;5004494;28;1449;-68
2021/03/03 03:07:05;;;;;;;;;;;;;;;;;;5006240;28;1407;-68
2021/03/03 03:09:32;;;;;;;;;;;;;;;;;;5006821;28;1178;-68
2021/03/03 03:11:57;;;;;;;;;;;;;;;;;;5007556;28;863;-68
2021/03/03 03:14:27;;;;;;;;;;;;;;;;;;5016906;28;1457;-68
2021/03/03 03:16:55;;;;;;;;;;;;;;;;;;5028095;28;823;-67
2021/03/03 03:19:40;;;;;;;;;;;;;;;;;;5027697;28;879;-67
2021/03/03 03:22:10;;;;;;;;;;;;;;;;;;5016463;28;1455;-68
2021/03/03 03:24:37;;;;;;;;;;;;;;;;;;5006364;28;1623;-68
2021/03/03 03:27:02;;;;;;;;;;;;;;;;;;5006433;28;890;-68
2021/03/03 03:29:28;;;;;;;;;;;;;;;;;;5006726;28;891;-68
2021/03/03 03:31:53;;;;;;;;;;;;;;;;;;5008173;28;1532;-68
2021/03/03 03:34:20;;;;;;;;;;;;;;;;;;5007056;28;1432;-68
2021/03/03 03:36:46;;;;;;;;;;;;;;;;;;5005878;28;1613;-67
2021/03/03 03:39:13;;;;;;;;;;;;;;;;;;5005099;28;1411;-67
2021/03/03 03:41:39;;;;;;;;;;;;;;;;;;5005252;28;1886;-67
2021/03/03 03:44:07;;;;;;;;;;;;;;;;;;5003861;28;1509;-67
2021/03/03 03:46:32;;;;;;;;;;;;;;;;;;5005288;28;1365;-68
2021/03/03 03:48:58;;;;;;;;;;;;;;;;;;5005287;28;1602;-68
2021/03/03 03:51:24;;;;;;;;;;;;;;;;;;5000426;28;1439;-68
2021/03/03 03:53:49;;;;;;;;;;;;;;;;;;5014917;28;1573;-68
2021/03/03 03:56:15;;;;;;;;;;;;;;;;;;5026263;28;883;-67
2021/03/03 03:58:40;;;;;;;;;;;;;;;;;;5025822;28;939;-68
2021/03/03 04:01:05;;;;;;;;;;;;;;;;;;5023885;28;1894;-67
2021/03/03 04:03:32;;;;;;;;;;;;;;;;;;5004052;28;1400;-67
2021/03/03 04:05:57;;;;;;;;;;;;;;;;;;5006027;28;1567;-67
2021/03/03 04:08:23;;;;;;;;;;;;;;;;;;5006624;28;1498;-68
2021/03/03 04:10:48;;;;;;;;;;;;;;;;;;5005673;28;1482;-68
2021/03/03 04:13:13;;;;;;;;;;;;;;;;;;5014261;28;1568;-67
2021/03/03 04:15:38;;;;;;;;;;;;;;;;;;5025007;28;890;-67
2021/03/03 04:18:04;;;;;;;;;;;;;;;;;;5026125;28;906;-67
2021/03/03 04:20:29;;;;;;;;;;;;;;;;;;5024610;28;1993;-67
2021/03/03 04:22:55;;;;;;;;;;;;;;;;;;5004496;28;1442;-67
2021/03/03 04:25:20;;;;;;;;;;;;;;;;;;5005667;28;1576;-68
2021/03/03 04:27:46;;;;;;;;;;;;;;;;;;5005776;28;684;-67
2021/03/03 04:30:13;;;;;;;;;;;;;;;;;;5038598;28;835;-67
2021/03/03 04:32:38;;;;;;;;;;;;;;;;;;5017312;28;1463;-68
2021/03/03 04:35:04;;;;;;;;;;;;;;;;;;5003810;28;1587;-67
2021/03/03 04:37:29;;;;;;;;;;;;;;;;;;5005653;28;1489;-67
2021/03/03 04:39:55;;;;;;;;;;;;;;;;;;5004326;28;1894;-67
2021/03/03 04:42:20;;;;;;;;;;;;;;;;;;5013430;28;1557;-67
2021/03/03 04:44:46;;;;;;;;;;;;;;;;;;5004596;28;1257;-67
2021/03/03 04:47:11;;;;;;;;;;;;;;;;;;5005373;28;851;-67
2021/03/03 04:49:36;;;;;;;;;;;;;;;;;;5004040;28;808;-67
2021/03/03 04:52:02;;;;;;;;;;;;;;;;;;5005934;28;910;-68
2021/03/03 04:54:27;;;;;;;;;;;;;;;;;;5005387;28;1517;-67
2021/03/03 04:56:53;;;;;;;;;;;;;;;;;;4992364;28;1408;-68
2021/03/03 04:59:18;;;;;;;;;;;;;;;;;;5008660;28;954;-68
2021/03/03 05:01:43;;;;;;;;;;;;;;;;;;5007977;28;1973;-68
2021/03/03 05:04:09;;;;;;;;;;;;;;;;;;5009773;28;1585;-67
2021/03/03 05:06:34;;;;;;;;;;;;;;;;;;5029135;28;918;-67
2021/03/03 05:09:00;;;;;;;;;;;;;;;;;;5020286;28;1579;-67
2021/03/03 05:11:25;;;;;;;;;;;;;;;;;;5011653;28;1466;-67
2021/03/03 05:13:50;;;;;;;;;;;;;;;;;;5019380;28;1442;-69
2021/03/03 05:16:17;;;;;;;;;;;;;;;;;;5029488;28;937;-67
2021/03/03 05:18:43;;;;;;;;;;;;;;;;;;5028995;28;831;-67
2021/03/03 05:21:08;;;;;;;;;;;;;;;;;;5030102;28;1973;-67
2021/03/03 05:23:34;;;;;;;;;;;;;;;;;;5008696;28;1638;-67
2021/03/03 05:26:01;;;;;;;;;;;;;;;;;;5008073;28;1315;-67
2021/03/03 05:28:26;;;;;;;;;;;;;;;;;;5007461;28;1224;-67
2021/03/03 05:30:52;;;;;;;;;;;;;;;;;;5008422;28;1737;-68
2021/03/03 05:33:26;;;;;;;;;;;;;;;;;;5011225;28;1467;-67
2021/03/03 05:35:52;;;;;;;;;;;;;;;;;;5021625;28;1586;-67
2021/03/03 05:38:17;;;;;;;;;;;;;;;;;;5009122;28;1585;-67
2021/03/03 05:40:46;;;;;;;;;;;;;;;;;;5026974;28;1917;-67
2021/03/03 05:43:11;;;;;;;;;;;;;;;;;;5019418;28;1272;-67
2021/03/03 05:45:38;;;;;;;;;;;;;;;;;;5005334;28;1659;-67
2021/03/03 05:48:04;;;;;;;;;;;;;;;;;;5001986;28;824;-67
2021/03/03 05:50:31;;;;;;;;;;;;;;;;;;5008309;28;1179;-67
2021/03/03 05:52:56;;;;;;;;;;;;;;;;;;5013341;28;1100;-67
2021/03/03 05:55:22;;;;;;;;;;;;;;;;;;5023664;28;1689;-67
2021/03/03 05:57:48;;;;;;;;;;;;;;;;;;5015529;28;1626;-67
2021/03/03 06:00:13;;;;;;;;;;;;;;;;;;5026635;28;1949;-67
2021/03/03 06:02:40;;;;;;;;;;;;;;;;;;5024978;28;1748;-67
2021/03/03 06:05:06;;;;;;;;;;;;;;;;;;5008019;28;946;-67
2021/03/03 06:07:32;;;;;;;;;;;;;;;;;;5015953;28;1625;-66
2021/03/03 06:09:58;;;;;;;;;;;;;;;;;;5004684;28;1519;-67
2021/03/03 06:12:23;;;;;;;;;;;;;;;;;;5013261;28;1470;-67
2021/03/03 06:14:48;;;;;;;;;;;;;;;;;;5008779;28;1585;-68
2021/03/03 06:17:14;;;;;;;;;;;;;;;;;;4988421;28;839;-68
2021/03/03 06:19:39;;;;;;;;;;;;;;;;;;4988171;28;1975;-68
2021/03/03 06:22:21;;;;;;;;;;;;;;;;;;4994579;28;1341;-67
2021/03/03 06:24:46;;;;;;;;;;;;;;;;;;5006692;28;1441;-67
2021/03/03 06:27:12;;;;;;;;;;;;;;;;;;5007532;28;1682;-67
2021/03/03 06:29:38;;;;;;;;;;;;;;;;;;5005921;28;1419;-68
2021/03/03 06:32:04;;;;;;;;;;;;;;;;;;4996449;28;839;-68
2021/03/03 06:34:29;;;;;;;;;;;;;;;;;;4988423;28;931;-68
2021/03/03 06:36:55;;;;;;;;;;;;;;;;;;4989303;28;816;-67
2021/03/03 06:39:22;;;;;;;;;;;;;;;;;;5004404;28;1455;-68
2021/03/03 06:41:52;;;;;;;;;;;;;;;;;;5010892;28;1886;-67
2021/03/03 06:44:18;;;;;;;;;;;;;;;;;;5007071;28;1632;-68
2021/03/03 06:46:43;;;;;;;;;;;;;;;;;;5009764;28;1214;-67
2021/03/03 06:49:22;;;;;;;;;;;;;;;;;;5008493;28;1265;-68
2021/03/03 06:51:49;;;;;;;;;;;;;;;;;;5008733;28;1512;-68
2021/03/03 06:54:21;;;;;;;;;;;;;;;;;;5009130;28;1082;-68
2021/03/03 06:56:48;;;;;;;;;;;;;;;;;;5008688;28;1412;-68
2021/03/03 06:59:13;;;;;;;;;;;;;;;;;;4988776;28;1763;-68
2021/03/03 07:01:38;;;;;;;;;;;;;;;;;;5022887;28;1902;-68
2021/03/03 07:04:17;;;;;;;;;;;;;;;;;;5005348;28;1473;-68
2021/03/03 07:06:42;;;;;;;;;;;;;;;;;;5006251;28;1151;-68
2021/03/03 07:09:08;;;;;;;;;;;;;;;;;;5001155;28;1445;-68
2021/03/03 07:11:33;;;;;;;;;;;;;;;;;;4987787;28;922;-68
2021/03/03 07:14:00;;;;;;;;;;;;;;;;;;4994523;28;958;-67
2021/03/03 07:16:25;;;;;;;;;;;;;;;;;;5007181;28;1377;-67
2021/03/03 07:18:51;;;;;;;;;;;;;;;;;;5019217;28;1540;-68
2021/03/03 07:21:34;;;;;;;;;;;;;;;;;;5015007;28;1894;-67
2021/03/03 07:24:00;;;;;;;;;;;;;;;;;;5024291;28;1408;-67
2021/03/03 07:26:26;;;;;;;;;;;;;;;;;;5021019;28;1684;-67
2021/03/03 07:28:51;;;;;;;;;;;;;;;;;;5012342;28;1485;-70
2021/03/03 07:31:16;;;;;;;;;;;;;;;;;;5011085;28;1585;-68
2021/03/03 07:33:42;;;;;;;;;;;;;;;;;;5006024;28;1540;-67
2021/03/03 07:36:08;;;;;;;;;;;;;;;;;;5006308;28;1233;-67
2021/03/03 07:38:35;;;;;;;;;;;;;;;;;;5006610;28;1437;-67
2021/03/03 07:41:07;;;;;;;;;;;;;;;;;;5008913;28;1979;-67
2021/03/03 07:43:32;;;;;;;;;;;;;;;;;;5005812;28;1632;-67
2021/03/03 07:46:00;;;;;;;;;;;;;;;;;;5020008;28;1635;-67
2021/03/03 07:48:27;;;;;;;;;;;;;;;;;;4988165;28;1504;-68
2021/03/03 07:50:53;;;;;;;;;;;;;;;;;;5004507;28;1343;-67
2021/03/03 07:53:19;;;;;;;;;;;;;;;;;;5013496;28;1075;-67
2021/03/03 07:55:44;;;;;;;;;;;;;;;;;;5024739;28;1432;-65
2021/03/03 07:58:10;;;;;;;;;;;;;;;;;;5026955;28;848;-67
2021/03/03 08:00:42;;;;;;;;;;;;;;;;;;5020273;28;1894;-67
2021/03/03 08:03:08;;;;;;;;;;;;;;;;;;5004491;28;1497;-66
2021/03/03 08:05:36;;;;;;;;;;;;;;;;;;5005077;28;1664;-66
2021/03/03 08:08:13;;;;;;;;;;;;;;;;;;5006285;28;963;-66
2021/03/03 08:10:43;;;;;;;;;;;;;;;;;;5005511;28;1768;-67
2021/03/03 08:13:11;;;;;;;;;;;;;;;;;;5006782;28;1341;-66
2021/03/03 08:15:41;;;;;;;;;;;;;;;;;;5006941;28;895;-66
2021/03/03 08:18:19;;;;;;;;;;;;;;;;;;5006430;28;1474;-66
2021/03/03 08:20:47;;;;;;;;;;;;;;;;;;5006601;28;1898;-66
2021/03/03 08:23:33;;;;;;;;;;;;;;;;;;5007399;28;890;-65
2021/03/03 08:26:29;;;;;;;;;;;;;;;;;;4998632;28;1481;-66
2021/03/03 08:29:10;;;;;;;;;;;;;;;;;;5003772;28;1405;-67
2021/03/03 08:31:39;;;;;;;;;;;;;;;;;;5006472;28;1411;-66
2021/03/03 08:34:05;;;;;;;;;;;;;;;;;;5002597;28;1865;-66
2021/03/03 08:36:31;;;;;;;;;;;;;;;;;;4971137;28;11582;-68
2021/03/03 08:38:56;;;;;;;;;;;;;;;;;;5008272;28;11364;-65
2021/03/03 08:41:31;;;;;;;;;;;;;;;;;;5008797;28;10774;-65
2021/03/03 08:44:00;;;;;;;;;;;;;;;;;;5013604;28;10678;-67
2021/03/03 08:46:28;;;;;;;;;;;;;;;;;;5008887;28;1431;-67
2021/03/03 08:48:56;;;;;;;;;;;;;;;;;;4991444;28;1646;-66
2021/03/03 08:51:32;;;;;;;;;;;;;;;;;;5009581;28;1533;-67
2021/03/03 08:54:08;;;;;;;;;;;;;;;;;;5009744;28;1588;-66
2021/03/03 08:56:36;;;;;;;;;;;;;;;;;;5009378;28;1180;-65
2021/03/03 08:59:02;;;;;;;;;;;;;;;;;;5019835;28;1446;-64
2021/03/03 09:01:46;;;;;;;;;;;;;;;;;;5011355;28;1985;-66
2021/03/03 09:04:13;;;;;;;;;;;;;;;;;;5020337;28;1369;-66
2021/03/03 09:06:38;;;;;;;;;;;;;;;;;;5010194;28;1544;-64
2021/03/03 09:09:04;;;;;;;;;;;;;;;;;;4989619;28;1609;-64
2021/03/03 09:11:29;;;;;;;;;;;;;;;;;;4988770;28;820;-65
2021/03/03 09:13:55;;;;;;;;;;;;;;;;;;5001327;28;1558;-65
2021/03/03 09:16:21;;;;;;;;;;;;;;;;;;5011034;28;859;-64
2021/03/03 09:19:00;;;;;;;;;;;;;;;;;;5021383;28;1605;-64
2021/03/03 09:21:28;;;;;;;;;;;;;;;;;;5029358;28;1902;-65
2021/03/03 09:24:05;;;;;;;;;;;;;;;;;;5024037;28;1443;-65
2021/03/03 09:26:30;;;;;;;;;;;;;;;;;;5024312;28;1450;-64
2021/03/03 09:28:56;;;;;;;;;;;;;;;;;;5009755;28;1449;-65
2021/03/03 09:31:31;;;;;;;;;;;;;;;;;;5023422;28;1527;-65
2021/03/03 09:33:57;;;;;;;;;;;;;;;;;;5024189;28;1599;-64
2021/03/03 09:36:22;;;;;;;;;;;;;;;;;;5016561;28;1688;-65
2021/03/03 09:39:06;;;;;;;;;;;;;;;;;;5010195;28;957;-65
2021/03/03 09:41:31;;;;;;;;;;;;;;;;;;5000326;28;1886;-65
2021/03/03 09:43:58;;;;;;;;;;;;;;;;;;5008708;28;1482;-65
2021/03/03 09:46:23;;;;;;;;;;;;;;;;;;5014151;28;1524;-65
2021/03/03 09:48:48;;;;;;;;;;;;;;;;;;5008305;28;1482;-64
2021/03/03 09:51:14;;;;;;;;;;;;;;;;;;5015814;28;1500;-64
2021/03/03 09:53:49;;;;;;;;;;;;;;;;;;5011112;28;1433;-64
2021/03/03 09:56:29;;;;;;;;;;;;;;;;;;5008997;28;1465;-64
2021/03/03 09:58:55;;;;;;;;;;;;;;;;;;5010729;28;1603;-64
2021/03/03 10:01:21;;;;;;;;;;;;;;;;;;5005400;28;1894;-65
2021/03/03 10:03:46;;;;;;;;;;;;;;;;;;4998644;28;1381;-65
2021/03/03 10:06:12;;;;;;;;;;;;;;;;;;5003578;28;1508;-65
2021/03/03 10:08:37;;;;;;;;;;;;;;;;;;5002947;28;1452;-65
2021/03/03 10:11:03;;;;;;;;;;;;;;;;;;5007305;28;1516;-64
2021/03/03 10:13:28;;;;;;;;;;;;;;;;;;5003108;28;1584;-65
2021/03/03 10:15:54;;;;;;;;;;;;;;;;;;5007777;28;803;-65
2021/03/03 10:18:21;;;;;;;;;;;;;;;;;;5018536;28;1529;-64
2021/03/03 10:20:58;;;;;;;;;;;;;;;;;;5010961;28;1973;-65
2021/03/03 10:23:24;;;;;;;;;;;;;;;;;;5017946;28;1508;-65
2021/03/03 10:25:50;;;;;;;;;;;;;;;;;;5010550;28;1459;-64
2021/03/03 10:28:17;;;;;;;;;;;;;;;;;;5010424;28;1471;-64
2021/03/03 10:30:43;;;;;;;;;;;;;;;;;;5017788;28;1615;-65
2021/03/03 10:33:10;;;;;;;;;;;;;;;;;;5022163;28;1402;-65
2021/03/03 10:35:51;;;;;;;;;;;;;;;;;;5027439;28;838;-65
2021/03/03 10:38:18;;;;;;;;;;;;;;;;;;5026643;28;1510;-64
2021/03/03 10:40:44;;;;;;;;;;;;;;;;;;5028136;28;1886;-64
2021/03/03 10:43:09;;;;;;;;;;;;;;;;;;5013603;28;1408;-65
2021/03/03 10:45:35;;;;;;;;;;;;;;;;;;5008942;28;879;-65
2021/03/03 10:48:00;;;;;;;;;;;;;;;;;;5005440;28;2359;-64
2021/03/03 10:50:25;;;;;;;;;;;;;;;;;;4999608;28;1652;-65
2021/03/03 10:53:05;;;;;;;;;;;;;;;;;;5006419;28;1611;-64
2021/03/03 10:55:37;;;;;;;;;;;;;;;;;;5005122;28;1369;-64
2021/03/03 10:58:04;;;;;;;;;;;;;;;;;;5006487;28;1450;-64
2021/03/03 11:00:30;;;;;;;;;;;;;;;;;;5006200;28;1906;-64
2021/03/03 11:03:00;;;;;;;;;;;;;;;;;;5015665;28;1638;-64
2021/03/03 11:05:25;;;;;;;;;;;;;;;;;;4990812;28;895;-65
2021/03/03 11:07:51;;;;;;;;;;;;;;;;;;5008487;28;887;-64
2021/03/03 11:10:17;;;;;;;;;;;;;;;;;;5004949;28;1623;-65
2021/03/03 11:12:42;;;;;;;;;;;;;;;;;;5006566;28;1338;-64
2021/03/03 11:15:08;;;;;;;;;;;;;;;;;;5006990;28;839;-65
2021/03/03 11:17:33;;;;;;;;;;;;;;;;;;5008100;28;828;-65
2021/03/03 11:19:59;;;;;;;;;;;;;;;;;;5005098;28;1886;-64
2021/03/03 11:22:24;;;;;;;;;;;;;;;;;;5004721;28;1455;-64
2021/03/03 11:24:49;;;;;;;;;;;;;;;;;;5005741;28;1470;-64
2021/03/03 11:27:15;;;;;;;;;;;;;;;;;;5005690;28;1443;-65
2021/03/03 11:29:40;;;;;;;;;;;;;;;;;;5016538;28;1639;-64
2021/03/03 11:32:06;;;;;;;;;;;;;;;;;;5020429;28;1448;-64
2021/03/03 11:34:31;;;;;;;;;;;;;;;;;;5005584;28;1477;-64
2021/03/03 11:36:57;;;;;;;;;;;;;;;;;;5004681;28;1443;-65
2021/03/03 11:39:23;;;;;;;;;;;;;;;;;;5020721;28;1612;-65
2021/03/03 11:41:48;;;;;;;;;;;;;;;;;;5010454;28;1890;-65
2021/03/03 11:44:14;;;;;;;;;;;;;;;;;;5006135;28;1093;-65
2021/03/03 11:46:39;;;;;;;;;;;;;;;;;;5003880;28;1757;-64
2021/03/03 11:49:04;;;;;;;;;;;;;;;;;;5005235;28;1528;-64
2021/03/03 11:51:30;;;;;;;;;;;;;;;;;;5005021;28;1425;-64
2021/03/03 11:53:55;;;;;;;;;;;;;;;;;;5016893;28;1545;-64
2021/03/03 11:56:20;;;;;;;;;;;;;;;;;;5019636;28;1611;-64
2021/03/03 11:58:46;;;;;;;;;;;;;;;;;;5004653;28;1566;-64
2021/03/03 12:01:11;;;;;;;;;;;;;;;;;;4997104;28;1967;-64
2021/03/03 12:03:36;;;;;;;;;;;;;;;;;;5008370;28;1406;-64
2021/03/03 12:06:02;;;;;;;;;;;;;;;;;;5025779;28;874;-64
2021/03/03 12:08:27;;;;;;;;;;;;;;;;;;5005193;28;1576;-64
2021/03/03 12:10:53;;;;;;;;;;;;;;;;;;5004162;28;1631;-64
2021/03/03 12:13:18;;;;;;;;;;;;;;;;;;5005991;28;1631;-64
2021/03/03 12:15:43;;;;;;;;;;;;;;;;;;5005249;28;1644;-64
2021/03/03 12:18:09;;;;;;;;;;;;;;;;;;5005589;28;1469;-64
2021/03/03 12:20:34;;;;;;;;;;;;;;;;;;5016631;28;1902;-64
2021/03/03 12:23:00;;;;;;;;;;;;;;;;;;5019913;28;1722;-64
2021/03/03 12:25:26;;;;;;;;;;;;;;;;;;5009812;28;1344;-64
2021/03/03 12:27:51;;;;;;;;;;;;;;;;;;5015796;28;1479;-63
2021/03/03 12:30:17;;;;;;;;;;;;;;;;;;5005055;28;1579;-63
2021/03/03 12:32:42;;;;;;;;;;;;;;;;;;4990073;28;1407;-63
2021/03/03 12:35:08;;;;;;;;;;;;;;;;;;5003434;28;1484;-63
2021/03/03 12:37:33;;;;;;;;;;;;;;;;;;5011092;28;1627;-63
2021/03/03 12:39:58;;;;;;;;;;;;;;;;;;5022527;28;1901;-64
2021/03/03 12:42:24;;;;;;;;;;;;;;;;;;5011454;28;1447;-64
2021/03/03 12:44:49;;;;;;;;;;;;;;;;;;5004112;28;1569;-63
2021/03/03 12:47:15;;;;;;;;;;;;;;;;;;5017592;28;1569;-63
2021/03/03 12:49:40;;;;;;;;;;;;;;;;;;5004731;28;1466;-63
2021/03/03 12:52:06;;;;;;;;;;;;;;;;;;4997907;28;1498;-64
2021/03/03 12:54:31;;;;;;;;;;;;;;;;;;5006911;28;1190;-63
2021/03/03 12:56:56;;;;;;;;;;;;;;;;;;5005908;28;1016;-63
2021/03/03 12:59:22;;;;;;;;;;;;;;;;;;5006611;28;1562;-63
2021/03/03 13:01:48;;;;;;;;;;;;;;;;;;5005957;28;1895;-63
2021/03/03 13:04:13;;;;;;;;;;;;;;;;;;5005807;28;922;-63
2021/03/03 13:06:38;;;;;;;;;;;;;;;;;;5006473;28;847;-63
2021/03/03 13:09:04;;;;;;;;;;;;;;;;;;5005141;28;1346;-64
2021/03/03 13:11:29;;;;;;;;;;;;;;;;;;5006712;28;1037;-64
2021/03/03 13:13:55;;;;;;;;;;;;;;;;;;5007162;28;1440;-64
2021/03/03 13:16:20;;;;;;;;;;;;;;;;;;5019632;28;1548;-64
2021/03/03 13:18:48;;;;;;;;;;;;;;;;;;5017381;28;1443;-63
2021/03/03 13:21:13;;;;;;;;;;;;;;;;;;4989042;28;1962;-63
2021/03/03 13:23:39;;;;;;;;;;;;;;;;;;4994307;28;1370;-63
2021/03/03 13:26:05;;;;;;;;;;;;;;;;;;4996647;28;1723;-63
2021/03/03 13:28:30;;;;;;;;;;;;;;;;;;5009138;28;1519;-63
2021/03/03 13:30:55;;;;;;;;;;;;;;;;;;5028910;28;898;-63
2021/03/03 13:33:21;;;;;;;;;;;;;;;;;;5011738;28;1426;-63
2021/03/03 13:35:47;;;;;;;;;;;;;;;;;;5012702;28;1557;-64
2021/03/03 13:38:12;;;;;;;;;;;;;;;;;;5015986;28;1412;-63
2021/03/03 13:40:39;;;;;;;;;;;;;;;;;;5008195;28;1918;-64
2021/03/03 13:43:05;;;;;;;;;;;;;;;;;;5016838;28;1556;-64
2021/03/03 13:45:30;;;;;;;;;;;;;;;;;;5004119;28;1625;-64
2021/03/03 13:47:55;;;;;;;;;;;;;;;;;;5014409;28;1552;-63
2021/03/03 13:50:21;;;;;;;;;;;;;;;;;;5011296;28;1089;-64
2021/03/03 13:52:46;;;;;;;;;;;;;;;;;;5009277;28;1099;-63
2021/03/03 13:55:12;;;;;;;;;;;;;;;;;;5004805;28;1553;-64
2021/03/03 13:57:37;;;;;;;;;;;;;;;;;;5007370;28;1567;-64
2021/03/03 14:00:06;;;;;;;;;;;;;;;;;;5007475;28;1963;-63
2021/03/03 14:02:32;;;;;;;;;;;;;;;;;;4996625;28;1481;-64
2021/03/03 14:04:57;;;;;;;;;;;;;;;;;;5006890;28;1141;-63
2021/03/03 14:07:23;;;;;;;;;;;;;;;;;;5006052;28;1584;-63
2021/03/03 14:09:49;;;;;;;;;;;;;;;;;;5019292;28;1350;-63
2021/03/03 14:12:14;;;;;;;;;;;;;;;;;;5024716;28;874;-63
2021/03/03 14:14:39;;;;;;;;;;;;;;;;;;5007293;28;1239;-63
2021/03/03 14:17:05;;;;;;;;;;;;;;;;;;5003723;28;1529;-63
2021/03/03 14:19:30;;;;;;;;;;;;;;;;;;5005487;28;1497;-63
2021/03/03 14:21:56;;;;;;;;;;;;;;;;;;5004176;28;1890;-63
2021/03/03 14:24:21;;;;;;;;;;;;;;;;;;5005836;28;1568;-63
2021/03/03 14:26:46;;;;;;;;;;;;;;;;;;5002479;28;1545;-63
2021/03/03 14:29:12;;;;;;;;;;;;;;;;;;5017891;28;1486;-63
2021/03/03 14:31:37;;;;;;;;;;;;;;;;;;5004558;28;1530;-63
2021/03/03 14:34:02;;;;;;;;;;;;;;;;;;5006889;28;910;-63
2021/03/03 14:36:28;;;;;;;;;;;;;;;;;;5004157;28;1853;-63
2021/03/03 14:38:54;;;;;;;;;;;;;;;;;;4954578;28;10669;-63
2021/03/03 14:41:19;;;;;;;;;;;;;;;;;;5007205;28;1914;-63
2021/03/03 14:43:45;;;;;;;;;;;;;;;;;;5005415;28;1571;-63
2021/03/03 14:46:10;;;;;;;;;;;;;;;;;;5003570;28;1438;-63
2021/03/03 14:48:36;;;;;;;;;;;;;;;;;;4988583;28;1584;-64
2021/03/03 14:51:01;;;;;;;;;;;;;;;;;;5005538;28;1658;-63
2021/03/03 14:53:26;;;;;;;;;;;;;;;;;;5013449;28;1453;-64
2021/03/03 14:55:52;;;;;;;;;;;;;;;;;;5007557;28;1849;-63
2021/03/03 14:58:17;;;;;;;;;;;;;;;;;;5005313;28;1419;-63
2021/03/03 15:00:43;;;;;;;;;;;;;;;;;;5005047;28;1890;-63
2021/03/03 15:03:08;;;;;;;;;;;;;;;;;;5022121;28;1342;-64
2021/03/03 15:05:33;;;;;;;;;;;;;;;;;;5022349;28;1457;-63
2021/03/03 15:07:59;;;;;;;;;;;;;;;;;;5012478;28;1461;-63
2021/03/03 15:10:25;;;;;;;;;;;;;;;;;;5005128;28;1416;-63
2021/03/03 15:12:50;;;;;;;;;;;;;;;;;;5015329;28;1628;-63
2021/03/03 15:15:16;;;;;;;;;;;;;;;;;;5024655;28;795;-63
2021/03/03 15:17:41;;;;;;;;;;;;;;;;;;5013049;28;1442;-63
2021/03/03 15:20:07;;;;;;;;;;;;;;;;;;5004272;28;1891;-63
2021/03/03 15:22:32;;;;;;;;;;;;;;;;;;5004885;28;1475;-63
2021/03/03 15:24:57;;;;;;;;;;;;;;;;;;5004527;28;1366;-63
2021/03/03 15:27:24;;;;;;;;;;;;;;;;;;5006070;28;855;-64
2021/03/03 15:29:49;;;;;;;;;;;;;;;;;;5001374;28;1592;-63
2021/03/03 15:32:15;;;;;;;;;;;;;;;;;;4986466;28;890;-63
2021/03/03 15:34:40;;;;;;;;;;;;;;;;;;5014173;28;1565;-63
2021/03/03 15:37:05;;;;;;;;;;;;;;;;;;5004225;28;1599;-63
2021/03/03 15:39:31;;;;;;;;;;;;;;;;;;5004925;28;1463;-63
2021/03/03 15:41:56;;;;;;;;;;;;;;;;;;5013289;28;1890;-64
2021/03/03 15:44:21;;;;;;;;;;;;;;;;;;5011911;28;1545;-63
2021/03/03 15:46:47;;;;;;;;;;;;;;;;;;5032895;28;1458;-63
2021/03/03 15:49:12;;;;;;;;;;;;;;;;;;5001219;28;1401;-63
2021/03/03 15:51:38;;;;;;;;;;;;;;;;;;5004153;28;1612;-63
2021/03/03 15:54:03;;;;;;;;;;;;;;;;;;5000077;28;1657;-63
2021/03/03 15:56:29;;;;;;;;;;;;;;;;;;5004363;28;1577;-64
2021/03/03 15:58:59;;;;;;;;;;;;;;;;;;5019745;28;1620;-63
2021/03/03 16:01:25;;;;;;;;;;;;;;;;;;5010064;28;1983;-63
2021/03/03 16:03:51;;;;;;;;;;;;;;;;;;5024646;28;1224;-63
2021/03/03 16:06:17;;;;;;;;;;;;;;;;;;5005138;28;1457;-64
2021/03/03 16:08:42;;;;;;;;;;;;;;;;;;5004100;28;1585;-64
2021/03/03 16:11:07;;;;;;;;;;;;;;;;;;5003417;28;1470;-64
2021/03/03 16:13:33;;;;;;;;;;;;;;;;;;5003875;28;1596;-64
2021/03/03 16:15:58;;;;;;;;;;;;;;;;;;5003206;28;1438;-64
2021/03/03 16:18:23;;;;;;;;;;;;;;;;;;5023782;28;1457;-64
2021/03/03 16:20:49;;;;;;;;;;;;;;;;;;5006143;28;1914;-64
2021/03/03 16:23:15;;;;;;;;;;;;;;;;;;5012254;28;1608;-64
2021/03/03 16:25:40;;;;;;;;;;;;;;;;;;5008788;28;1750;-64
2021/03/03 16:28:05;;;;;;;;;;;;;;;;;;5006564;28;1425;-64
2021/03/03 16:30:31;;;;;;;;;;;;;;;;;;5014761;28;1555;-64
2021/03/03 16:32:56;;;;;;;;;;;;;;;;;;5017470;28;1506;-64
2021/03/03 16:35:22;;;;;;;;;;;;;;;;;;5019910;28;1419;-63
2021/03/03 16:37:48;;;;;;;;;;;;;;;;;;5000834;28;1530;-64
2021/03/03 16:40:14;;;;;;;;;;;;;;;;;;4992714;28;1971;-64
2021/03/03 16:42:39;;;;;;;;;;;;;;;;;;5003186;28;1429;-64
2021/03/03 16:45:07;;;;;;;;;;;;;;;;;;5004157;28;1594;-64
2021/03/03 16:47:32;;;;;;;;;;;;;;;;;;5006290;28;1615;-64
2021/03/03 16:49:58;;;;;;;;;;;;;;;;;;5016099;28;1404;-64
2021/03/03 16:52:23;;;;;;;;;;;;;;;;;;5005237;28;1639;-64
2021/03/03 16:54:49;;;;;;;;;;;;;;;;;;5008888;28;1462;-64
2021/03/03 16:57:15;;;;;;;;;;;;;;;;;;5011964;28;1508;-63
2021/03/03 16:59:40;;;;;;;;;;;;;;;;;;5006578;28;1774;-63
2021/03/03 17:02:06;;;;;;;;;;;;;;;;;;5006852;28;1902;-63